sensor_id;sensor_type;location;lat;lon;timestamp;temperature;humidity
72936;DHT22;61085;48.804;9.228;2023-03-23T00:01:22;14.90;70.70
72936;DHT22;61085;48.804;9.228;2023-03-23T00:03:51;14.90;71.10
72936;DHT22;61085;48.804;9.228;2023-03-23T00:06:18;14.90;71.80
72936;DHT22;61085;48.804;9.228;2023-03-23T00:08:47;14.80;72.40
72936;DHT22;61085;48.804;9.228;2023-03-23T00:11:13;14.80;73.40
72936;DHT22;61085;48.804;9.228;2023-03-23T00:13:44;14.80;73.50
72936;DHT22;61085;48.804;9.228;2023-03-23T00:16:11;14.80;74.60
72936;DHT22;61085;48.804;9.228;2023-03-23T00:18:47;14.80;72.50
72936;DHT22;61085;48.804;9.228;2023-03-23T00:21:18;14.90;71.80
72936;DHT22;61085;48.804;9.228;2023-03-23T00:23:44;14.80;71.50
72936;DHT22;61085;48.804;9.228;2023-03-23T00:26:11;14.80;71.60
72936;DHT22;61085;48.804;9.228;2023-03-23T00:28:37;14.90;71.60
72936;DHT22;61085;48.804;9.228;2023-03-23T00:31:06;14.90;71.60
72936;DHT22;61085;48.804;9.228;2023-03-23T00:33:34;14.80;71.60
72936;DHT22;61085;48.804;9.228;2023-03-23T00:36:04;14.80;71.70
72936;DHT22;61085;48.804;9.228;2023-03-23T00:38:30;14.90;70.00
72936;DHT22;61085;48.804;9.228;2023-03-23T00:40:56;14.90;70.90
72936;DHT22;61085;48.804;9.228;2023-03-23T00:43:23;14.90;72.10
72936;DHT22;61085;48.804;9.228;2023-03-23T00:45:50;14.80;72.30
72936;DHT22;61085;48.804;9.228;2023-03-23T00:48:21;14.80;73.30
72936;DHT22;61085;48.804;9.228;2023-03-23T00:50:47;14.80;73.50
72936;DHT22;61085;48.804;9.228;2023-03-23T00:53:14;14.80;73.70
72936;DHT22;61085;48.804;9.228;2023-03-23T00:55:42;14.70;73.60
72936;DHT22;61085;48.804;9.228;2023-03-23T00:58:08;14.70;73.70
72936;DHT22;61085;48.804;9.228;2023-03-23T01:00:34;14.70;72.50
72936;DHT22;61085;48.804;9.228;2023-03-23T01:03:00;14.70;70.70
72936;DHT22;61085;48.804;9.228;2023-03-23T01:05:26;14.70;71.10
72936;DHT22;61085;48.804;9.228;2023-03-23T01:07:57;14.80;69.70
72936;DHT22;61085;48.804;9.228;2023-03-23T01:10:23;14.80;69.80
72936;DHT22;61085;48.804;9.228;2023-03-23T01:12:52;14.80;68.70
72936;DHT22;61085;48.804;9.228;2023-03-23T01:15:19;14.80;68.10
72936;DHT22;61085;48.804;9.228;2023-03-23T01:17:45;14.80;67.10
72936;DHT22;61085;48.804;9.228;2023-03-23T01:20:12;14.70;68.40
72936;DHT22;61085;48.804;9.228;2023-03-23T01:22:39;14.70;67.50
72936;DHT22;61085;48.804;9.228;2023-03-23T01:25:06;14.80;67.20
72936;DHT22;61085;48.804;9.228;2023-03-23T01:27:32;14.80;67.10
72936;DHT22;61085;48.804;9.228;2023-03-23T01:29:58;14.70;67.30
72936;DHT22;61085;48.804;9.228;2023-03-23T01:32:23;14.60;67.90
72936;DHT22;61085;48.804;9.228;2023-03-23T01:34:49;14.70;67.20
72936;DHT22;61085;48.804;9.228;2023-03-23T01:37:14;14.70;67.30
72936;DHT22;61085;48.804;9.228;2023-03-23T01:39:41;14.70;67.40
72936;DHT22;61085;48.804;9.228;2023-03-23T01:42:09;14.70;66.90
72936;DHT22;61085;48.804;9.228;2023-03-23T01:47:00;14.60;64.90
72936;DHT22;61085;48.804;9.228;2023-03-23T01:49:31;14.70;66.90
72936;DHT22;61085;48.804;9.228;2023-03-23T01:52:14;14.70;67.70
72936;DHT22;61085;48.804;9.228;2023-03-23T01:54:43;14.60;69.10
72936;DHT22;61085;48.804;9.228;2023-03-23T01:57:15;14.60;69.30
72936;DHT22;61085;48.804;9.228;2023-03-23T01:59:44;14.40;70.20
72936;DHT22;61085;48.804;9.228;2023-03-23T02:02:12;14.50;70.10
72936;DHT22;61085;48.804;9.228;2023-03-23T02:04:39;14.50;69.30
72936;DHT22;61085;48.804;9.228;2023-03-23T02:07:07;14.60;67.70
72936;DHT22;61085;48.804;9.228;2023-03-23T02:09:33;14.60;68.00
72936;DHT22;61085;48.804;9.228;2023-03-23T02:11:59;14.60;68.50
72936;DHT22;61085;48.804;9.228;2023-03-23T02:14:26;14.60;67.80
72936;DHT22;61085;48.804;9.228;2023-03-23T02:39:19;14.20;75.70
72936;DHT22;61085;48.804;9.228;2023-03-23T02:41:31;14.20;75.90
72936;DHT22;61085;48.804;9.228;2023-03-23T02:44:02;14.10;76.80
72936;DHT22;61085;48.804;9.228;2023-03-23T02:46:28;14.00;78.00
72936;DHT22;61085;48.804;9.228;2023-03-23T02:48:55;14.00;78.50
72936;DHT22;61085;48.804;9.228;2023-03-23T02:51:24;13.90;78.80
72936;DHT22;61085;48.804;9.228;2023-03-23T02:53:51;14.00;79.10
72936;DHT22;61085;48.804;9.228;2023-03-23T02:56:19;14.00;79.20
72936;DHT22;61085;48.804;9.228;2023-03-23T02:58:45;14.00;79.60
72936;DHT22;61085;48.804;9.228;2023-03-23T03:03:56;14.00;80.40
72936;DHT22;61085;48.804;9.228;2023-03-23T03:11:33;14.20;77.60
72936;DHT22;61085;48.804;9.228;2023-03-23T03:14:02;14.20;77.50
72936;DHT22;61085;48.804;9.228;2023-03-23T03:16:43;14.20;78.00
72936;DHT22;61085;48.804;9.228;2023-03-23T03:19:28;14.40;79.00
72936;DHT22;61085;48.804;9.228;2023-03-23T03:21:58;14.20;79.70
72936;DHT22;61085;48.804;9.228;2023-03-23T03:24:26;14.00;81.00
72936;DHT22;61085;48.804;9.228;2023-03-23T03:26:54;14.00;81.60
72936;DHT22;61085;48.804;9.228;2023-03-23T03:29:33;14.00;81.10
72936;DHT22;61085;48.804;9.228;2023-03-23T03:32:01;14.00;79.60
72936;DHT22;61085;48.804;9.228;2023-03-23T03:34:29;14.00;78.90
72936;DHT22;61085;48.804;9.228;2023-03-23T03:36:58;14.10;79.40
72936;DHT22;61085;48.804;9.228;2023-03-23T03:39:25;14.10;77.90
72936;DHT22;61085;48.804;9.228;2023-03-23T03:41:51;14.10;76.50
72936;DHT22;61085;48.804;9.228;2023-03-23T03:44:17;14.10;76.20
72936;DHT22;61085;48.804;9.228;2023-03-23T03:46:42;14.20;75.10
72936;DHT22;61085;48.804;9.228;2023-03-23T03:49:09;14.40;74.10
72936;DHT22;61085;48.804;9.228;2023-03-23T03:51:36;14.40;73.80
72936;DHT22;61085;48.804;9.228;2023-03-23T03:54:02;14.40;73.70
72936;DHT22;61085;48.804;9.228;2023-03-23T03:56:28;14.40;73.70
72936;DHT22;61085;48.804;9.228;2023-03-23T03:58:53;14.50;72.60
72936;DHT22;61085;48.804;9.228;2023-03-23T04:01:21;14.40;72.90
72936;DHT22;61085;48.804;9.228;2023-03-23T04:03:48;14.40;72.10
72936;DHT22;61085;48.804;9.228;2023-03-23T04:06:14;14.40;72.70
72936;DHT22;61085;48.804;9.228;2023-03-23T04:08:40;14.40;73.40
72936;DHT22;61085;48.804;9.228;2023-03-23T04:11:07;14.20;74.60
72936;DHT22;61085;48.804;9.228;2023-03-23T04:13:33;14.10;75.70
72936;DHT22;61085;48.804;9.228;2023-03-23T04:15:59;14.20;77.00
72936;DHT22;61085;48.804;9.228;2023-03-23T04:18:25;14.10;76.70
72936;DHT22;61085;48.804;9.228;2023-03-23T04:20:51;14.10;77.00
72936;DHT22;61085;48.804;9.228;2023-03-23T04:23:19;14.10;77.70
72936;DHT22;61085;48.804;9.228;2023-03-23T04:25:49;14.20;77.80
72936;DHT22;61085;48.804;9.228;2023-03-23T04:28:16;14.20;77.90
72936;DHT22;61085;48.804;9.228;2023-03-23T04:30:49;14.10;78.60
72936;DHT22;61085;48.804;9.228;2023-03-23T04:33:19;14.10;78.00
72936;DHT22;61085;48.804;9.228;2023-03-23T04:35:48;14.10;78.30
72936;DHT22;61085;48.804;9.228;2023-03-23T04:38:15;14.20;78.60
72936;DHT22;61085;48.804;9.228;2023-03-23T04:40:43;14.20;78.20
72936;DHT22;61085;48.804;9.228;2023-03-23T04:43:08;14.20;78.10
72936;DHT22;61085;48.804;9.228;2023-03-23T04:45:34;14.10;78.20
72936;DHT22;61085;48.804;9.228;2023-03-23T04:48:03;14.20;78.70
72936;DHT22;61085;48.804;9.228;2023-03-23T04:50:32;14.20;78.70
72936;DHT22;61085;48.804;9.228;2023-03-23T04:53:02;14.10;80.00
72936;DHT22;61085;48.804;9.228;2023-03-23T04:55:34;13.80;80.20
72936;DHT22;61085;48.804;9.228;2023-03-23T04:58:05;14.00;81.00
72936;DHT22;61085;48.804;9.228;2023-03-23T05:00:32;14.00;80.80
72936;DHT22;61085;48.804;9.228;2023-03-23T05:02:58;14.00;80.50
72936;DHT22;61085;48.804;9.228;2023-03-23T05:05:24;14.00;80.90
72936;DHT22;61085;48.804;9.228;2023-03-23T05:07:50;14.00;80.70
72936;DHT22;61085;48.804;9.228;2023-03-23T05:10:16;14.00;80.60
72936;DHT22;61085;48.804;9.228;2023-03-23T05:12:43;14.00;80.10
72936;DHT22;61085;48.804;9.228;2023-03-23T05:15:10;14.10;80.10
72936;DHT22;61085;48.804;9.228;2023-03-23T05:17:36;14.20;80.40
72936;DHT22;61085;48.804;9.228;2023-03-23T05:20:03;14.20;80.70
72936;DHT22;61085;48.804;9.228;2023-03-23T05:22:31;14.20;79.50
72936;DHT22;61085;48.804;9.228;2023-03-23T05:25:00;14.30;79.10
72936;DHT22;61085;48.804;9.228;2023-03-23T05:27:28;14.30;79.30
72936;DHT22;61085;48.804;9.228;2023-03-23T05:29:56;14.30;79.10
72936;DHT22;61085;48.804;9.228;2023-03-23T05:32:24;14.30;78.50
72936;DHT22;61085;48.804;9.228;2023-03-23T05:34:58;14.30;78.50
72936;DHT22;61085;48.804;9.228;2023-03-23T05:37:26;14.40;78.70
72936;DHT22;61085;48.804;9.228;2023-03-23T05:39:52;14.40;77.90
72936;DHT22;61085;48.804;9.228;2023-03-23T05:42:22;14.40;77.70
72936;DHT22;61085;48.804;9.228;2023-03-23T05:44:48;14.50;77.00
72936;DHT22;61085;48.804;9.228;2023-03-23T05:47:14;14.50;76.00
72936;DHT22;61085;48.804;9.228;2023-03-23T05:49:39;14.50;75.50
72936;DHT22;61085;48.804;9.228;2023-03-23T05:52:05;14.50;75.20
72936;DHT22;61085;48.804;9.228;2023-03-23T05:54:30;14.60;74.70
72936;DHT22;61085;48.804;9.228;2023-03-23T05:56:56;14.60;74.80
72936;DHT22;61085;48.804;9.228;2023-03-23T05:59:22;14.60;74.00
72936;DHT22;61085;48.804;9.228;2023-03-23T06:01:47;14.70;73.30
72936;DHT22;61085;48.804;9.228;2023-03-23T06:04:13;14.80;72.50
72936;DHT22;61085;48.804;9.228;2023-03-23T06:06:39;14.90;71.20
72936;DHT22;61085;48.804;9.228;2023-03-23T06:09:07;15.10;70.50
72936;DHT22;61085;48.804;9.228;2023-03-23T06:11:33;15.10;69.60
72936;DHT22;61085;48.804;9.228;2023-03-23T06:13:59;15.10;69.30
72936;DHT22;61085;48.804;9.228;2023-03-23T06:16:24;15.20;67.80
72936;DHT22;61085;48.804;9.228;2023-03-23T06:18:50;15.40;68.40
72936;DHT22;61085;48.804;9.228;2023-03-23T06:21:16;15.40;67.20
72936;DHT22;61085;48.804;9.228;2023-03-23T06:23:44;15.50;66.40
72936;DHT22;61085;48.804;9.228;2023-03-23T06:26:12;15.50;67.00
72936;DHT22;61085;48.804;9.228;2023-03-23T06:28:39;15.40;66.70
72936;DHT22;61085;48.804;9.228;2023-03-23T06:31:06;15.50;66.90
72936;DHT22;61085;48.804;9.228;2023-03-23T06:33:37;15.40;66.20
72936;DHT22;61085;48.804;9.228;2023-03-23T06:36:03;15.40;66.40
72936;DHT22;61085;48.804;9.228;2023-03-23T06:38:30;15.40;66.30
72936;DHT22;61085;48.804;9.228;2023-03-23T06:40:57;15.40;66.10
72936;DHT22;61085;48.804;9.228;2023-03-23T06:43:23;15.40;66.00
72936;DHT22;61085;48.804;9.228;2023-03-23T06:45:49;15.50;65.90
72936;DHT22;61085;48.804;9.228;2023-03-23T06:48:15;15.50;65.90
72936;DHT22;61085;48.804;9.228;2023-03-23T06:50:45;15.50;65.30
72936;DHT22;61085;48.804;9.228;2023-03-23T06:53:11;15.50;65.30
72936;DHT22;61085;48.804;9.228;2023-03-23T06:55:37;15.50;65.40
72936;DHT22;61085;48.804;9.228;2023-03-23T06:58:07;15.40;65.70
72936;DHT22;61085;48.804;9.228;2023-03-23T07:00:34;15.50;66.40
72936;DHT22;61085;48.804;9.228;2023-03-23T07:02:59;15.60;66.50
72936;DHT22;61085;48.804;9.228;2023-03-23T07:05:25;15.70;66.30
72936;DHT22;61085;48.804;9.228;2023-03-23T07:07:51;15.80;66.00
72936;DHT22;61085;48.804;9.228;2023-03-23T07:10:18;15.90;65.70
72936;DHT22;61085;48.804;9.228;2023-03-23T07:12:43;16.00;65.20
72936;DHT22;61085;48.804;9.228;2023-03-23T07:15:09;16.00;65.10
72936;DHT22;61085;48.804;9.228;2023-03-23T07:17:39;16.00;64.90
72936;DHT22;61085;48.804;9.228;2023-03-23T07:20:06;16.00;65.60
72936;DHT22;61085;48.804;9.228;2023-03-23T07:22:33;16.00;65.60
72936;DHT22;61085;48.804;9.228;2023-03-23T07:24:59;16.10;65.70
72936;DHT22;61085;48.804;9.228;2023-03-23T07:27:25;16.00;65.40
72936;DHT22;61085;48.804;9.228;2023-03-23T07:29:51;16.00;65.60
72936;DHT22;61085;48.804;9.228;2023-03-23T07:32:17;15.90;65.70
72936;DHT22;61085;48.804;9.228;2023-03-23T07:34:43;15.90;65.30
72936;DHT22;61085;48.804;9.228;2023-03-23T07:37:09;15.90;64.90
72936;DHT22;61085;48.804;9.228;2023-03-23T07:39:34;15.70;65.60
72936;DHT22;61085;48.804;9.228;2023-03-23T07:42:00;15.90;64.70
72936;DHT22;61085;48.804;9.228;2023-03-23T07:44:26;15.90;65.60
72936;DHT22;61085;48.804;9.228;2023-03-23T07:46:51;16.00;64.70
72936;DHT22;61085;48.804;9.228;2023-03-23T07:49:18;16.00;64.90
72936;DHT22;61085;48.804;9.228;2023-03-23T07:51:45;16.00;64.80
72936;DHT22;61085;48.804;9.228;2023-03-23T07:54:10;16.00;64.80
72936;DHT22;61085;48.804;9.228;2023-03-23T07:56:37;16.00;64.70
72936;DHT22;61085;48.804;9.228;2023-03-23T07:59:05;16.20;65.40
72936;DHT22;61085;48.804;9.228;2023-03-23T08:01:31;16.30;65.60
72936;DHT22;61085;48.804;9.228;2023-03-23T08:03:57;16.60;65.10
72936;DHT22;61085;48.804;9.228;2023-03-23T08:06:25;16.80;63.90
72936;DHT22;61085;48.804;9.228;2023-03-23T08:08:50;16.90;64.10
72936;DHT22;61085;48.804;9.228;2023-03-23T08:11:17;17.00;62.60
72936;DHT22;61085;48.804;9.228;2023-03-23T08:13:44;17.10;63.00
72936;DHT22;61085;48.804;9.228;2023-03-23T08:16:10;17.10;62.70
72936;DHT22;61085;48.804;9.228;2023-03-23T08:18:37;17.20;63.20
72936;DHT22;61085;48.804;9.228;2023-03-23T08:21:03;17.20;62.90
72936;DHT22;61085;48.804;9.228;2023-03-23T08:23:35;17.20;63.10
72936;DHT22;61085;48.804;9.228;2023-03-23T08:26:03;17.20;63.60
72936;DHT22;61085;48.804;9.228;2023-03-23T08:28:28;17.30;63.60
72936;DHT22;61085;48.804;9.228;2023-03-23T08:30:54;17.20;64.60
72936;DHT22;61085;48.804;9.228;2023-03-23T08:33:20;17.20;64.60
72936;DHT22;61085;48.804;9.228;2023-03-23T08:35:57;17.20;65.20
72936;DHT22;61085;48.804;9.228;2023-03-23T08:38:23;17.20;65.60
72936;DHT22;61085;48.804;9.228;2023-03-23T08:40:50;17.10;66.10
72936;DHT22;61085;48.804;9.228;2023-03-23T08:43:16;17.10;66.30
72936;DHT22;61085;48.804;9.228;2023-03-23T08:45:41;17.10;67.10
72936;DHT22;61085;48.804;9.228;2023-03-23T08:48:07;17.20;66.90
72936;DHT22;61085;48.804;9.228;2023-03-23T08:50:34;17.10;67.20
72936;DHT22;61085;48.804;9.228;2023-03-23T08:53:01;17.10;67.60
72936;DHT22;61085;48.804;9.228;2023-03-23T08:55:26;17.00;68.10
72936;DHT22;61085;48.804;9.228;2023-03-23T08:57:53;17.10;68.30
72936;DHT22;61085;48.804;9.228;2023-03-23T09:00:20;17.00;68.60
72936;DHT22;61085;48.804;9.228;2023-03-23T09:02:53;17.10;69.90
72936;DHT22;61085;48.804;9.228;2023-03-23T09:05:21;17.10;69.80
72936;DHT22;61085;48.804;9.228;2023-03-23T09:07:49;17.00;69.20
72936;DHT22;61085;48.804;9.228;2023-03-23T09:10:16;17.00;69.60
72936;DHT22;61085;48.804;9.228;2023-03-23T09:12:44;16.90;70.20
72936;DHT22;61085;48.804;9.228;2023-03-23T09:15:15;17.00;70.30
72936;DHT22;61085;48.804;9.228;2023-03-23T09:17:43;17.00;70.40
72936;DHT22;61085;48.804;9.228;2023-03-23T09:20:11;17.20;70.50
72936;DHT22;61085;48.804;9.228;2023-03-23T09:22:41;17.30;69.90
72936;DHT22;61085;48.804;9.228;2023-03-23T09:25:09;17.40;70.30
72936;DHT22;61085;48.804;9.228;2023-03-23T09:27:36;17.50;69.40
72936;DHT22;61085;48.804;9.228;2023-03-23T09:30:11;17.70;69.80
72936;DHT22;61085;48.804;9.228;2023-03-23T09:32:38;17.70;68.80
72936;DHT22;61085;48.804;9.228;2023-03-23T09:35:06;17.60;68.20
72936;DHT22;61085;48.804;9.228;2023-03-23T09:37:34;17.90;67.60
72936;DHT22;61085;48.804;9.228;2023-03-23T09:40:05;18.00;67.10
72936;DHT22;61085;48.804;9.228;2023-03-23T09:43:03;17.70;66.90
72936;DHT22;61085;48.804;9.228;2023-03-23T09:48:29;17.60;66.20
72936;DHT22;61085;48.804;9.228;2023-03-23T09:53:52;17.40;66.90
72936;DHT22;61085;48.804;9.228;2023-03-23T09:56:19;17.40;67.00
72936;DHT22;61085;48.804;9.228;2023-03-23T09:59:00;17.30;67.70
72936;DHT22;61085;48.804;9.228;2023-03-23T10:01:44;17.20;67.00
72936;DHT22;61085;48.804;9.228;2023-03-23T10:04:27;17.30;68.00
72936;DHT22;61085;48.804;9.228;2023-03-23T10:07:22;17.40;68.20
72936;DHT22;61085;48.804;9.228;2023-03-23T10:09:47;17.50;67.80
72936;DHT22;61085;48.804;9.228;2023-03-23T10:12:19;17.60;68.10
72936;DHT22;61085;48.804;9.228;2023-03-23T10:17:58;17.70;67.40
72936;DHT22;61085;48.804;9.228;2023-03-23T10:25:42;17.80;67.30
72936;DHT22;61085;48.804;9.228;2023-03-23T10:28:13;18.00;67.00
72936;DHT22;61085;48.804;9.228;2023-03-23T10:30:57;18.10;66.50
72936;DHT22;61085;48.804;9.228;2023-03-23T10:33:53;18.20;66.40
72936;DHT22;61085;48.804;9.228;2023-03-23T10:36:27;18.20;66.10
72936;DHT22;61085;48.804;9.228;2023-03-23T10:41:27;18.50;65.90
72936;DHT22;61085;48.804;9.228;2023-03-23T10:43:53;18.60;65.80
72936;DHT22;61085;48.804;9.228;2023-03-23T10:46:34;18.50;65.00
72936;DHT22;61085;48.804;9.228;2023-03-23T10:49:06;18.40;64.30
72936;DHT22;61085;48.804;9.228;2023-03-23T10:51:35;18.20;65.50
72936;DHT22;61085;48.804;9.228;2023-03-23T10:54:03;18.10;66.20
72936;DHT22;61085;48.804;9.228;2023-03-23T10:56:42;18.00;67.00
72936;DHT22;61085;48.804;9.228;2023-03-23T10:59:26;17.90;67.50
72936;DHT22;61085;48.804;9.228;2023-03-23T11:01:55;17.90;67.50
72936;DHT22;61085;48.804;9.228;2023-03-23T11:04:22;18.00;67.10
72936;DHT22;61085;48.804;9.228;2023-03-23T11:06:51;18.00;67.80
72936;DHT22;61085;48.804;9.228;2023-03-23T11:09:32;18.10;67.90
72936;DHT22;61085;48.804;9.228;2023-03-23T11:11:58;18.20;69.10
72936;DHT22;61085;48.804;9.228;2023-03-23T11:14:28;18.40;66.90
72936;DHT22;61085;48.804;9.228;2023-03-23T11:16:56;18.30;66.80
72936;DHT22;61085;48.804;9.228;2023-03-23T11:19:36;18.20;66.20
72936;DHT22;61085;48.804;9.228;2023-03-23T11:22:08;18.10;66.40
72936;DHT22;61085;48.804;9.228;2023-03-23T11:24:42;18.10;67.00
72936;DHT22;61085;48.804;9.228;2023-03-23T11:27:09;18.10;67.80
72936;DHT22;61085;48.804;9.228;2023-03-23T11:29:45;18.30;67.30
72936;DHT22;61085;48.804;9.228;2023-03-23T11:32:14;18.10;67.20
72936;DHT22;61085;48.804;9.228;2023-03-23T11:34:45;18.10;67.30
72936;DHT22;61085;48.804;9.228;2023-03-23T11:37:19;18.10;67.10
72936;DHT22;61085;48.804;9.228;2023-03-23T11:42:34;17.90;68.00
72936;DHT22;61085;48.804;9.228;2023-03-23T11:50:27;18.20;66.60
72936;DHT22;61085;48.804;9.228;2023-03-23T11:56:11;18.20;66.00
72936;DHT22;61085;48.804;9.228;2023-03-23T11:58:37;18.30;66.60
72936;DHT22;61085;48.804;9.228;2023-03-23T12:18:06;18.70;60.00
72936;DHT22;61085;48.804;9.228;2023-03-23T12:24:24;18.60;60.50
72936;DHT22;61085;48.804;9.228;2023-03-23T12:26:24;18.70;60.50
72936;DHT22;61085;48.804;9.228;2023-03-23T12:31:39;18.70;59.80
72936;DHT22;61085;48.804;9.228;2023-03-23T12:34:37;18.70;59.40
72936;DHT22;61085;48.804;9.228;2023-03-23T12:37:24;18.70;59.80
72936;DHT22;61085;48.804;9.228;2023-03-23T12:42:47;18.60;59.70
72936;DHT22;61085;48.804;9.228;2023-03-23T12:48:08;18.90;59.90
72936;DHT22;61085;48.804;9.228;2023-03-23T12:53:33;19.00;58.60
72936;DHT22;61085;48.804;9.228;2023-03-23T12:56:42;19.00;58.70
72936;DHT22;61085;48.804;9.228;2023-03-23T12:59:19;19.00;58.30
72936;DHT22;61085;48.804;9.228;2023-03-23T13:01:50;19.00;58.50
72936;DHT22;61085;48.804;9.228;2023-03-23T13:04:25;19.00;59.30
72936;DHT22;61085;48.804;9.228;2023-03-23T13:06:52;19.10;59.20
72936;DHT22;61085;48.804;9.228;2023-03-23T13:09:26;19.20;59.20
72936;DHT22;61085;48.804;9.228;2023-03-23T13:11:55;19.20;58.90
72936;DHT22;61085;48.804;9.228;2023-03-23T13:27:59;19.20;59.30
72936;DHT22;61085;48.804;9.228;2023-03-23T13:30:27;19.20;59.80
72936;DHT22;61085;48.804;9.228;2023-03-23T13:33:05;19.30;61.10
72936;DHT22;61085;48.804;9.228;2023-03-23T13:35:40;19.40;59.40
72936;DHT22;61085;48.804;9.228;2023-03-23T13:38:21;19.50;58.90
72936;DHT22;61085;48.804;9.228;2023-03-23T13:40:49;19.50;58.50
72936;DHT22;61085;48.804;9.228;2023-03-23T13:43:43;19.50;57.80
72936;DHT22;61085;48.804;9.228;2023-03-23T13:46:23;19.30;58.00
72936;DHT22;61085;48.804;9.228;2023-03-23T13:51:35;19.30;58.50
72936;DHT22;61085;48.804;9.228;2023-03-23T13:55:07;19.20;58.90
72936;DHT22;61085;48.804;9.228;2023-03-23T13:57:02;19.30;58.90
72936;DHT22;61085;48.804;9.228;2023-03-23T13:59:46;19.30;58.70
72936;DHT22;61085;48.804;9.228;2023-03-23T14:02:41;19.20;58.20
72936;DHT22;61085;48.804;9.228;2023-03-23T14:10:18;19.10;57.80
72936;DHT22;61085;48.804;9.228;2023-03-23T14:12:45;19.00;57.80
72936;DHT22;61085;48.804;9.228;2023-03-23T14:15:13;18.90;58.00
72936;DHT22;61085;48.804;9.228;2023-03-23T14:17:44;19.00;58.70
72936;DHT22;61085;48.804;9.228;2023-03-23T14:20:31;19.10;57.70
72936;DHT22;61085;48.804;9.228;2023-03-23T14:23:00;19.00;57.50
72936;DHT22;61085;48.804;9.228;2023-03-23T14:25:31;19.10;57.40
72936;DHT22;61085;48.804;9.228;2023-03-23T14:27:57;18.90;57.70
72936;DHT22;61085;48.804;9.228;2023-03-23T14:30:26;18.90;57.70
72936;DHT22;61085;48.804;9.228;2023-03-23T14:32:54;18.90;58.00
72936;DHT22;61085;48.804;9.228;2023-03-23T14:35:36;19.00;56.50
72936;DHT22;61085;48.804;9.228;2023-03-23T14:38:02;19.00;56.70
72936;DHT22;61085;48.804;9.228;2023-03-23T14:40:29;19.00;56.30
72936;DHT22;61085;48.804;9.228;2023-03-23T14:42:56;18.90;56.10
72936;DHT22;61085;48.804;9.228;2023-03-23T14:45:23;18.90;55.40
72936;DHT22;61085;48.804;9.228;2023-03-23T14:47:58;18.90;55.30
72936;DHT22;61085;48.804;9.228;2023-03-23T14:50:38;18.90;55.90
72936;DHT22;61085;48.804;9.228;2023-03-23T14:53:29;18.90;55.40
72936;DHT22;61085;48.804;9.228;2023-03-23T14:55:55;18.90;55.20
72936;DHT22;61085;48.804;9.228;2023-03-23T14:58:24;18.80;55.70
72936;DHT22;61085;48.804;9.228;2023-03-23T15:01:00;18.90;55.50
72936;DHT22;61085;48.804;9.228;2023-03-23T15:03:41;18.90;55.60
72936;DHT22;61085;48.804;9.228;2023-03-23T15:06:17;18.90;55.30
72936;DHT22;61085;48.804;9.228;2023-03-23T15:08:45;18.90;54.70
72936;DHT22;61085;48.804;9.228;2023-03-23T15:11:13;18.70;54.80
72936;DHT22;61085;48.804;9.228;2023-03-23T15:13:50;18.70;55.10
72936;DHT22;61085;48.804;9.228;2023-03-23T15:16:22;18.70;55.00
72936;DHT22;61085;48.804;9.228;2023-03-23T15:19:03;18.70;55.10
72936;DHT22;61085;48.804;9.228;2023-03-23T15:21:35;18.70;55.00
72936;DHT22;61085;48.804;9.228;2023-03-23T15:24:17;18.80;54.30
72936;DHT22;61085;48.804;9.228;2023-03-23T15:26:44;18.80;54.40
72936;DHT22;61085;48.804;9.228;2023-03-23T15:29:19;18.70;54.30
72936;DHT22;61085;48.804;9.228;2023-03-23T15:31:50;18.70;54.30
72936;DHT22;61085;48.804;9.228;2023-03-23T15:34:24;18.70;54.10
72936;DHT22;61085;48.804;9.228;2023-03-23T15:36:56;18.70;53.80
72936;DHT22;61085;48.804;9.228;2023-03-23T15:39:22;18.70;53.80
72936;DHT22;61085;48.804;9.228;2023-03-23T15:41:50;18.60;53.60
72936;DHT22;61085;48.804;9.228;2023-03-23T15:44:42;18.80;53.60
72936;DHT22;61085;48.804;9.228;2023-03-23T15:49:41;18.60;53.30
72936;DHT22;61085;48.804;9.228;2023-03-23T15:52:09;18.50;53.20
72936;DHT22;61085;48.804;9.228;2023-03-23T15:54:36;18.50;53.20
72936;DHT22;61085;48.804;9.228;2023-03-23T15:57:01;18.40;53.40
72936;DHT22;61085;48.804;9.228;2023-03-23T15:59:27;18.50;53.30
72936;DHT22;61085;48.804;9.228;2023-03-23T16:01:52;18.50;53.60
72936;DHT22;61085;48.804;9.228;2023-03-23T16:04:18;18.40;53.10
72936;DHT22;61085;48.804;9.228;2023-03-23T16:06:45;18.40;53.50
72936;DHT22;61085;48.804;9.228;2023-03-23T16:09:17;18.40;53.30
72936;DHT22;61085;48.804;9.228;2023-03-23T16:11:43;18.40;53.20
72936;DHT22;61085;48.804;9.228;2023-03-23T16:14:09;18.40;53.50
72936;DHT22;61085;48.804;9.228;2023-03-23T16:16:53;18.30;53.40
72936;DHT22;61085;48.804;9.228;2023-03-23T16:19:19;18.30;53.80
72936;DHT22;61085;48.804;9.228;2023-03-23T16:24:14;18.20;53.40
72936;DHT22;61085;48.804;9.228;2023-03-23T16:26:40;18.20;54.00
72936;DHT22;61085;48.804;9.228;2023-03-23T16:29:11;18.10;54.80
72936;DHT22;61085;48.804;9.228;2023-03-23T16:31:37;18.10;54.20
72936;DHT22;61085;48.804;9.228;2023-03-23T16:34:02;18.10;54.10
72936;DHT22;61085;48.804;9.228;2023-03-23T16:36:28;18.00;54.30
72936;DHT22;61085;48.804;9.228;2023-03-23T16:38:54;18.20;54.50
72936;DHT22;61085;48.804;9.228;2023-03-23T16:41:19;18.00;54.70
72936;DHT22;61085;48.804;9.228;2023-03-23T16:43:45;18.00;54.60
72936;DHT22;61085;48.804;9.228;2023-03-23T16:46:11;17.90;54.60
72936;DHT22;61085;48.804;9.228;2023-03-23T16:48:38;17.90;54.80
72936;DHT22;61085;48.804;9.228;2023-03-23T16:51:04;17.90;55.00
72936;DHT22;61085;48.804;9.228;2023-03-23T16:53:29;17.80;55.00
72936;DHT22;61085;48.804;9.228;2023-03-23T16:55:58;17.80;55.20
72936;DHT22;61085;48.804;9.228;2023-03-23T16:58:23;17.80;55.40
72936;DHT22;61085;48.804;9.228;2023-03-23T17:00:50;17.90;55.80
72936;DHT22;61085;48.804;9.228;2023-03-23T17:03:18;17.80;55.80
72936;DHT22;61085;48.804;9.228;2023-03-23T17:05:44;17.80;55.60
72936;DHT22;61085;48.804;9.228;2023-03-23T17:08:11;17.70;55.70
72936;DHT22;61085;48.804;9.228;2023-03-23T17:10:38;17.70;55.90
72936;DHT22;61085;48.804;9.228;2023-03-23T17:13:04;17.70;56.00
72936;DHT22;61085;48.804;9.228;2023-03-23T17:15:29;17.60;56.20
72936;DHT22;61085;48.804;9.228;2023-03-23T17:17:58;17.60;56.40
72936;DHT22;61085;48.804;9.228;2023-03-23T17:20:24;17.70;56.20
72936;DHT22;61085;48.804;9.228;2023-03-23T17:22:50;17.60;56.20
72936;DHT22;61085;48.804;9.228;2023-03-23T17:25:16;17.70;56.30
72936;DHT22;61085;48.804;9.228;2023-03-23T17:27:41;17.60;56.60
72936;DHT22;61085;48.804;9.228;2023-03-23T17:30:08;17.50;56.80
72936;DHT22;61085;48.804;9.228;2023-03-23T17:32:34;17.50;56.90
72936;DHT22;61085;48.804;9.228;2023-03-23T17:35:01;17.50;57.30
72936;DHT22;61085;48.804;9.228;2023-03-23T17:37:26;17.50;57.40
72936;DHT22;61085;48.804;9.228;2023-03-23T17:39:52;17.50;57.30
72936;DHT22;61085;48.804;9.228;2023-03-23T17:42:17;17.40;57.40